Airfield :
LOGIN :

Register | Disclaimer

   EN    FR    IT 

 










Legend :    VFR   Marginal VFR   IFR   Intensive IFR   Very Intensive IFR
Visi :
Ceiling :
>= 8 km
>= 3000ft
5 to 8 km
1000 to 3000 ft
1500m to 5 km
500 to 1000 ft
800 to 1500m
200 to 500 ft
< 800m
< 200 ft
Symbols :   Thunderstorms  Fog  Heavy snow  Heavy precipitations  Wind > 20 kt
SIGMETs :     Misc.  Thunderstorms  Icing  Turbulence  Mountain Waves  Volcanic Ashes






- Airport Elevation : 5600 ft
- IATA code : SMV


LSZS - Samedan

CURRENT METAR :
  • 200620Z AUTO VRB02KT 9999 OVC002 BKN008 M01/M01 Q1013

EXPIRED METARs :
  • 200550Z AUTO VRB01KT 9999 SCT002 OVC009 M01/M01 Q1013 RESN
  • 200520Z AUTO VRB01KT 5000 BKN008 M00/M00 Q1013 REFZDZ
  • 200450Z AUTO 02001KT 0300 FZFG VV001 M00/M00 Q1013
  • 200420Z AUTO 00000KT 0650 FZFG VV002 M00/M00 Q1014
  • 200350Z AUTO 14001KT 0350 FZFG VV001 M00/M00 Q1014

TAF AMD TAF LSZS
Valid from the 20 at 06:00 until the 20 at 15:00 UTC


200630Z 2006/2015 VRB03KT 8000 BKN002 BKN008 TX04/2014Z
TEMPO 2006/2008 4000 BR
BECMG 2008/2010 9999 SCT004
BECMG 2010/2012 CAVOK
ATIS : +41 81 834 93 24



MET'MAP, your aeronautical weather chart ! - Copyright ORBIFLY December 2007 - Disclaimer

ORBIFLY MET'MAP TEAM :

Programming & Development : Alexandra Zaïnal
Concept & Development : Baudouin d'Aumeries
Co-Development & Prog : Marc-Olivier Méhu
Technical & hardware support : Manuel Goepfert

Contact : metmap@orbifly.com




SOURCES & CREDITS :

   NOAA